Latest Weather Observations for Ivanhoe Airport

IDN60801

Issued at 3:43 am EDT Friday 28 January 2022 (issued every 10 minutes, with the page automatically refreshed every 10 minutes)

About weather observations | Map of weather stations | Latest weather observations for NSW | Other Formats
Station Details ID: 049000 Name: IVANHOE AERODROME AWS Lat: -32.88 Lon: 144.31 Height: 100.0 m
Data from the previous 72 hours. | See also: Recent months at Ivanhoe Airport
Date/Time
EDT
Temp
°C
App
Temp
°C
Dew
Point
°C
Rel
Hum
%
Delta-T
°C
Wind Press
QNH
hPa
Press
MSL
hPa
Rain since
9am
mm
Dir  Spd
km/h
Gust
km/h
Spd
kts
Gust
kts
28/03:30am 24.4 26.6 20.3 78 2.7 NNE 9 13 5 7 1007.5 1006.8 1.4
28/03:00am 24.6 26.4 20.3 77 2.8 NNE 11 15 6 8 1007.7 1007.0 1.4
28/02:30am 24.7 26.0 20.2 76 2.9 NNE 13 17 7 9 1008.1 1007.4 1.4
28/02:00am 25.0 26.2 20.0 74 3.3 NNE 13 17 7 9 1008.3 1007.6 1.4
28/01:30am 25.0 25.8 19.8 73 3.4 N 15 19 8 10 1008.6 1007.9 1.4
28/01:00am 25.1 25.4 19.7 72 3.5 NNE 17 20 9 11 1008.7 1008.0 1.4
28/12:30am 25.2 25.2 19.8 72 3.5 NNE 19 28 10 15 1008.2 1007.5 1.4
28/12:00am 25.2 25.3 20.0 73 3.4 NNE 19 24 10 13 1007.8 1007.1 1.4
 
Date/Time
EDT
Temp
°C
App
Temp
°C
Dew
Point
°C
Rel
Hum
%
Delta-T
°C
Wind Press
QNH
hPa
Press
MSL
hPa
Rain since
9am
mm
Dir  Spd
km/h
Gust
km/h
Spd
kts
Gust
kts
27/11:30pm 25.2 25.2 20.2 74 3.3 NNE 20 26 11 14 1007.5 1006.8 1.4
27/11:00pm 25.0 25.1 20.3 75 3.1 NE 20 24 11 13 1007.5 1006.8 1.4
27/10:30pm 25.2 24.7 20.0 73 3.4 NE 22 30 12 16 1007.6 1006.9 1.4
27/10:00pm 25.2 24.7 20.0 73 3.4 NE 22 28 12 15 1007.8 1007.1 1.4
27/09:30pm 25.5 24.6 19.9 71 3.6 NE 24 32 13 17 1007.4 1006.7 1.4
27/09:00pm 25.8 24.8 20.4 72 3.5 NE 26 37 14 20 1006.9 1006.2 1.4
27/08:30pm 26.2 25.2 20.5 71 3.7 NE 26 37 14 20 1006.7 1006.0 1.4
27/08:00pm 26.9 26.3 21.2 71 3.8 NE 26 37 14 20 1006.6 1005.9 1.4
27/07:30pm 27.8 27.5 21.1 67 4.5 NE 24 33 13 18 1005.9 1005.3 1.4
27/07:00pm 26.9 27.5 21.4 72 3.7 E 20 32 11 17 1005.4 1004.8 1.4
27/06:30pm 28.0 26.4 19.2 58 5.7 E 26 43 14 23 1005.7 1005.1 1.2
27/06:19pm 28.9 28.3 19.8 58 6.0 ESE 22 35 12 19 1005.5 1004.9 1.2
27/06:09pm 29.6 30.3 21.5 61 5.5 SE 20 30 11 16 1004.7 1004.1 1.2
27/06:00pm 29.2 30.2 22.2 66 4.8 SE 20 32 11 17 1004.7 1004.1 1.2
27/05:36pm 27.7 28.8 22.0 71 3.8 E 19 26 10 14 1004.6 1004.0 1.2
27/05:30pm 27.4 28.6 22.1 73 3.6 E 19 26 10 14 1004.9 1004.3 1.2
27/05:26pm 27.1 27.8 22.3 75 3.2 E 22 32 12 17 1004.9 1004.3 1.2
27/05:23pm 27.0 27.3 22.2 75 3.2 E 24 32 13 17 1004.8 1004.2 1.2
27/05:00pm 27.1 28.0 23.3 80 2.6 SE 24 32 13 17 1004.4 1003.8 1.0
27/04:47pm 28.2 26.1 20.5 63 5.1 SE 32 44 17 24 1004.7 1004.1 0.2
27/04:37pm 34.0 32.5 18.5 40 10.1 E 24 39 13 21 1004.4 1003.8 0.0
27/04:30pm 34.4 32.6 18.8 39 10.3 ENE 26 35 14 19 1004.1 1003.5 0.0
27/04:00pm 37.4 36.4 18.9 34 12.3 E 22 30 12 16 1004.2 1003.6 0.0
27/03:47pm 37.0 36.3 19.4 35 11.7 ESE 22 41 12 22 1004.3 1003.7 0.0
27/03:37pm 38.0 39.5 18.9 32 12.7 ENE 9 17 5 9 1004.5 1003.9 0.0
27/03:31pm 38.3 39.7 17.7 30 13.5 W 7 17 4 9 1004.6 1004.0 0.0
27/03:30pm 38.5 39.5 17.8 29 13.6 WSW 9 17 5 9 1004.6 1004.0 0.0
27/03:18pm 37.6 37.6 17.1 30 13.3 NW 13 20 7 11 1004.7 1004.1 0.0
27/03:00pm 38.1 38.8 18.0 30 13.2 WNW 11 20 6 11 1005.0 1004.4 0.0
27/02:30pm 36.9 36.7 17.5 32 12.6 NE 15 22 8 12 1005.6 1005.0 0.0
27/02:00pm 36.8 36.7 18.8 34 11.9 N 17 26 9 14 1006.1 1005.4 0.0
27/01:30pm 36.4 36.4 18.9 35 11.6 N 17 26 9 14 1006.6 1005.9 0.0
27/01:00pm 35.5 36.5 20.2 40 10.3 N 15 24 8 13 1006.8 1006.1 0.0
27/12:30pm 34.3 34.4 19.9 42 9.6 NNE 19 28 10 15 1007.0 1006.3 0.0
27/12:00pm 33.8 34.2 20.6 46 8.9 N 19 28 10 15 1007.4 1006.7 0.0
27/11:30am 34.2 34.7 20.9 45 9.0 N 19 32 10 17 1007.9 1007.2 0.0
27/11:00am 31.0 32.3 20.9 55 6.8 NNE 15 24 8 13 1008.4 1007.7 0.0
27/10:30am 30.1 30.8 20.4 56 6.4 NNE 17 24 9 13 1008.7 1008.0 0.0
27/10:00am 29.9 30.3 20.7 57 6.1 NE 19 24 10 13 1008.8 1008.2 0.0
27/09:30am 27.6 28.7 20.4 65 4.7 NE 15 19 8 10 1009.0 1008.4 0.0
27/09:00am 26.9 27.8 20.0 66 4.5 NNE 15 19 8 10 1009.2 1008.6 0.0
27/08:30am 27.3 27.5 20.1 64 4.7 NE 19 28 10 15 1008.7 1008.0 0.0
27/08:00am 26.4 26.3 19.5 66 4.5 NE 19 24 10 13 1008.5 1007.8 0.0
27/07:30am 25.3 25.1 19.4 70 3.8 NE 19 24 10 13 1008.1 1007.4 0.0
27/07:00am 25.1 26.0 19.2 70 3.8 NE 13 17 7 9 1008.0 1007.3 0.0
27/06:30am 25.1 25.6 19.2 70 3.8 NE 15 20 8 11 1007.5 1006.8 0.0
27/06:00am 25.3 25.3 19.0 68 4.1 NE 17 22 9 12 1007.1 1006.4 0.0
27/05:30am 25.5 25.9 18.9 67 4.2 NE 15 22 8 12 1006.9 1006.2 0.0
27/05:00am 25.8 25.4 19.0 66 4.4 NE 19 24 10 13 1006.7 1006.0 0.0
27/04:30am 26.0 25.5 18.7 64 4.7 NE 19 26 10 14 1006.8 1006.1 0.0
27/04:00am 26.2 25.5 18.6 63 4.9 NE 20 30 11 16 1006.8 1006.1 0.0
27/03:30am 26.5 25.4 18.6 62 5.1 NE 22 30 12 16 1006.7 1006.0 0.0
27/03:00am 26.6 25.9 18.7 62 5.1 NE 20 30 11 16 1006.9 1006.2 0.0
27/02:30am 26.7 26.1 18.8 62 5.1 NE 20 28 11 15 1007.0 1006.3 0.0
27/02:00am 27.0 26.0 18.8 60 5.3 NE 22 30 12 16 1007.1 1006.4 0.0
27/01:30am 27.2 26.8 18.8 60 5.4 NE 19 26 10 14 1007.4 1006.7 0.0
27/01:00am 27.4 27.3 18.7 59 5.6 ENE 17 22 9 12 1007.7 1007.0 0.0
27/12:30am 27.9 26.9 18.9 58 5.8 NE 22 35 12 19 1007.7 1007.0 0.0
27/12:00am 28.2 26.8 18.9 57 6.0 NE 24 32 13 17 1007.3 1006.6 0.0
 
Date/Time
EDT
Temp
°C
App
Temp
°C
Dew
Point
°C
Rel
Hum
%
Delta-T
°C
Wind Press
QNH
hPa
Press
MSL
hPa
Rain since
9am
mm
Dir  Spd
km/h
Gust
km/h
Spd
kts
Gust
kts
26/11:30pm 28.5 27.9 18.9 56 6.2 NE 20 32 11 17 1007.1 1006.4 0.0
26/11:00pm 28.8 27.8 18.9 55 6.4 NE 22 32 12 17 1006.9 1006.2 0.0
26/10:30pm 29.2 28.0 18.3 51 7.0 NE 22 32 12 17 1006.4 1005.7 0.0
26/10:00pm 29.6 27.3 18.4 51 7.2 NE 28 37 15 20 1005.7 1005.1 0.0
26/09:30pm 30.0 29.5 17.8 48 7.8 NE 17 28 9 15 1005.7 1005.1 0.0
26/09:00pm 30.3 28.8 17.7 46 8.1 NE 22 32 12 17 1005.5 1004.9 0.0
26/08:30pm 30.9 29.0 17.6 45 8.5 NNE 24 32 13 17 1005.4 1004.8 0.0
26/08:00pm 31.8 29.6 16.9 40 9.5 NE 24 32 13 17 1005.3 1004.7 0.0
26/07:30pm 32.5 29.7 16.3 37 10.2 ENE 26 33 14 18 1005.2 1004.6 0.0
26/07:00pm 33.5 31.1 16.4 36 10.9 NNE 24 33 13 18 1005.1 1004.5 0.0
26/06:30pm 33.6 31.6 17.3 37 10.5 NE 24 37 13 20 1004.9 1004.3 0.0
26/06:00pm 33.9 30.3 16.3 35 11.2 NE 30 41 16 22 1004.6 1004.0 0.0
26/05:30pm 34.5 31.3 16.4 34 11.5 NE 28 39 15 21 1004.8 1004.2 0.0
26/05:00pm 34.4 31.4 15.8 33 11.8 NE 26 39 14 21 1004.9 1004.3 0.0
26/04:30pm 34.8 32.1 15.7 32 12.0 NE 24 35 13 19 1005.2 1004.6 0.0
26/04:00pm 34.8 32.3 16.1 32 11.9 NE 24 35 13 19 1005.7 1005.1 0.0
26/03:30pm 33.7 30.8 16.1 34 11.1 NE 26 39 14 21 1006.2 1005.5 0.0
26/03:00pm 33.2 30.9 15.7 35 11.0 NE 22 35 12 19 1006.5 1005.8 0.0
26/02:30pm 35.1 33.8 16.9 34 11.7 NE 19 30 10 16 1006.8 1006.1 0.0
26/02:00pm 34.5 33.0 16.8 34 11.3 ENE 20 32 11 17 1007.1 1006.4 0.0
26/01:30pm 32.8 31.1 16.2 37 10.5 ENE 20 30 11 16 1007.2 1006.5 0.0
26/01:00pm 32.9 31.4 16.7 38 10.3 NE 20 33 11 18 1007.5 1006.8 0.0
26/12:30pm 32.1 31.1 17.6 42 9.3 NNE 19 32 10 17 1008.0 1007.3 0.0
26/12:00pm 31.4 31.0 18.0 44 8.7 ENE 17 24 9 13 1008.3 1007.6 0.0
26/11:30am 31.0 30.2 18.0 45 8.4 NE 19 30 10 16 1008.5 1007.8 0.0
26/11:00am 30.7 30.5 18.4 47 8.0 ENE 17 24 9 13 1008.4 1007.7 0.0
26/10:30am 29.2 29.5 18.0 50 7.2 NE 13 22 7 12 1008.6 1007.9 0.0
26/10:00am 28.8 28.6 18.6 54 6.6 NE 17 22 9 12 1008.7 1008.0 0.0
26/09:30am 28.1 28.1 18.2 55 6.3 NNE 15 24 8 13 1008.8 1008.2 0.0
26/09:00am 27.1 26.2 17.8 56 5.9 NE 19 22 10 12 1008.8 1008.2 0.0
26/08:30am 26.7 26.2 17.8 58 5.6 NNE 17 22 9 12 1008.8 1008.2 0.0
26/08:00am 25.1 24.8 18.3 66 4.3 NE 17 20 9 11 1008.5 1007.8 0.0
26/07:30am 24.4 24.8 18.1 68 4.0 NNE 13 19 7 10 1008.0 1007.3 0.0
26/07:00am 23.7 24.8 17.9 70 3.6 NNE 9 11 5 6 1007.7 1007.0 0.0
26/06:30am 23.1 24.0 17.6 71 3.4 NNE 9 11 5 6 1007.4 1006.7 0.0
26/06:00am 23.3 24.5 17.3 69 3.7 NNE 7 9 4 5 1006.9 1006.2 0.0
26/05:30am 23.9 24.7 17.4 67 4.0 NNE 9 11 5 6 1006.7 1006.0 0.0
26/05:00am 24.4 25.2 17.4 65 4.4 NNE 9 13 5 7 1006.5 1005.8 0.0
26/04:30am 25.0 25.1 17.5 63 4.7 NNE 13 15 7 8 1006.3 1005.6 0.0
26/04:00am 25.6 25.1 17.8 62 4.9 NNE 17 24 9 13 1006.3 1005.6 0.0
26/03:30am 25.9 25.0 17.8 61 5.1 N 19 28 10 15 1006.4 1005.7 0.0
26/03:00am 26.2 25.7 17.8 60 5.3 NNE 17 20 9 11 1006.4 1005.7 0.0
26/02:30am 26.7 25.8 17.8 58 5.6 NNE 19 24 10 13 1006.5 1005.8 0.0
26/02:00am 27.0 26.0 18.0 58 5.7 NNE 20 26 11 14 1006.8 1006.1 0.0
26/01:30am 27.1 26.5 18.4 59 5.6 NNE 19 26 10 14 1006.7 1006.0 0.0
26/01:00am 27.0 26.7 18.3 59 5.6 NE 17 20 9 11 1006.8 1006.1 0.0
26/12:30am 27.2 27.0 18.5 59 5.6 NNE 17 22 9 12 1007.0 1006.3 0.0
26/12:00am 27.3 26.5 18.0 56 5.9 NNE 19 24 10 13 1006.8 1006.1 0.0
 
Date/Time
EDT
Temp
°C
App
Temp
°C
Dew
Point
°C
Rel
Hum
%
Delta-T
°C
Wind Press
QNH
hPa
Press
MSL
hPa
Rain since
9am
mm
Dir  Spd
km/h
Gust
km/h
Spd
kts
Gust
kts
25/11:30pm 27.4 26.5 17.8 55 6.1 NNE 19 24 10 13 1006.9 1006.2 0.0
25/11:00pm 27.5 26.4 17.7 55 6.2 NE 20 30 11 16 1006.8 1006.1 0.0
25/10:30pm 27.8 27.0 17.9 54 6.3 NE 19 24 10 13 1006.6 1005.9 0.0
25/10:00pm 27.8 26.9 18.2 56 6.1 ENE 20 28 11 15 1006.4 1005.7 0.0
25/09:30pm 28.2 27.0 18.3 55 6.3 ENE 22 32 12 17 1006.3 1005.6 0.0
25/09:00pm 28.5 28.1 18.0 53 6.7 ENE 17 26 9 14 1005.7 1005.1 0.0
25/08:30pm 28.4 27.6 17.9 53 6.7 ENE 19 24 10 13 1005.6 1005.0 0.0
25/08:00pm 29.1 27.7 17.9 50 7.2 E 22 30 12 16 1005.3 1004.7 0.0
25/07:30pm 29.3 26.8 18.1 51 7.2 E 28 37 15 20 1005.1 1004.5 0.0
25/07:00pm 30.5 28.8 18.2 47 8.0 ENE 24 33 13 18 1004.8 1004.2 0.0
25/06:30pm 30.3 29.5 18.4 49 7.7 NE 20 28 11 15 1004.7 1004.1 0.0
25/06:00pm 31.2 31.0 16.8 42 9.1 SE 13 19 7 10 1004.6 1004.0 0.0
25/05:30pm 31.3 29.7 16.5 41 9.3 E 20 30 11 16 1004.4 1003.8 0.0
25/05:00pm 32.0 29.9 16.3 39 9.9 ESE 22 28 12 15 1004.4 1003.8 0.0
25/04:30pm 32.6 33.1 15.1 34 10.9 W 6 11 3 6 1004.4 1003.8 0.0
25/04:00pm 33.8 33.8 16.2 35 11.2 E 11 22 6 12 1004.7 1004.1 0.0
25/03:30pm 33.4 33.2 16.7 36 10.6 ENE 13 19 7 10 1005.0 1004.4 0.0
25/03:00pm 31.9 32.5 15.4 37 10.3 N 6 13 3 7 1005.2 1004.6 0.0
25/02:30pm 32.1 32.2 15.6 37 10.3 E 9 17 5 9 1005.4 1004.8 0.0
25/02:00pm 32.1 30.9 15.1 35 10.6 ENE 15 20 8 11 1005.7 1005.1 0.0
25/01:30pm 33.8 33.9 16.6 35 11.0 ESE 11 22 6 12 1005.9 1005.3 0.0
25/01:00pm 32.4 32.0 16.3 38 10.2 E 13 26 7 14 1006.2 1005.5 0.0
25/12:30pm 32.2 32.1 16.1 38 10.1 E 11 20 6 11 1006.6 1005.9 0.0
25/12:00pm 31.1 31.5 16.3 41 9.3 NE 9 17 5 9 1006.8 1006.1 0.0
25/11:30am 30.9 31.5 16.9 43 8.9 ESE 9 17 5 9 1007.0 1006.3 0.0
25/11:00am 29.5 29.9 16.3 45 8.3 E 9 17 5 9 1007.0 1006.3 0.0
25/10:30am 29.2 30.3 17.1 48 7.6 E 7 13 4 7 1007.2 1006.5 0.0
25/10:00am 28.1 29.6 17.6 53 6.7 E 6 11 3 6 1007.3 1006.6 0.0
25/09:30am 26.7 28.8 18.0 59 5.5 NNE 4 9 2 5 1007.4 1006.7 0.0
25/09:00am 25.8 27.6 18.2 63 4.8 N 6 9 3 5 1007.5 1006.8 0.0
25/08:30am 25.4 27.2 18.8 67 4.2 NNW 7 11 4 6 1007.3 1006.6 0.0
25/08:00am 24.7 26.6 18.9 70 3.7 NNW 7 11 4 6 1007.2 1006.5 0.0
25/07:30am 24.5 24.3 19.3 73 3.3 NW 19 26 10 14 1007.0 1006.3 0.0
25/07:00am 25.0 24.1 18.2 66 4.3 NW 20 26 11 14 1006.5 1005.8 0.0
25/06:30am 25.6 24.9 16.5 57 5.6 NW 15 20 8 11 1005.9 1005.3 0.0
25/06:00am 25.9 26.2 15.9 54 6.1 NW 9 13 5 7 1005.5 1004.9 0.0
25/05:30am 26.2 25.8 15.3 51 6.6 WNW 11 13 6 7 1005.1 1004.5 0.0
25/05:00am 26.6 26.2 15.3 50 6.9 WNW 11 15 6 8 1004.7 1004.1 0.0
25/04:30am 26.9 26.2 15.3 49 7.1 WNW 13 19 7 10 1004.6 1004.0 0.0
25/04:00am 27.3 26.8 15.0 47 7.5 WNW 11 15 6 8 1004.8 1004.2 0.0

Other formats

Comma delimited format used in spreadsheet applications
http://www.bom.gov.au/fwo/IDN60801/IDN60801.95697.axf

JavaScript Object Notation format (JSON) in row-major order
http://www.bom.gov.au/fwo/IDN60801/IDN60801.95697.json

Data quality

Most of these data are generated automatically and are frequently updated. Quality checks on data are not normally performed. It is possible for incorrect values to appear. Refer to information at About Latest Weather Observations and please check the disclaimer before using these data.